createdAt,value
2018-08-09T00:00:03.272Z,23.25
2018-08-09T00:01:31.823Z,23.22
2018-08-09T00:02:58.494Z,23.13
2018-08-09T00:04:26.005Z,23.05
2018-08-09T00:05:54.351Z,23.03
2018-08-09T00:07:23.883Z,23.02
2018-08-09T00:08:49.113Z,23.04
2018-08-09T00:10:16.612Z,23.03
2018-08-09T00:11:43.109Z,23.03
2018-08-09T00:13:10.692Z,23.03
2018-08-09T00:14:39.063Z,23.05
2018-08-09T00:16:06.724Z,23.04
2018-08-09T00:17:34.351Z,23.03
2018-08-09T00:19:01.896Z,23.02
2018-08-09T00:20:28.567Z,23.01
2018-08-09T00:21:55.125Z,22.98
2018-08-09T00:23:22.900Z,22.98
2018-08-09T00:24:50.516Z,22.94
2018-08-09T00:26:18.008Z,22.90
2018-08-09T00:27:46.463Z,22.84
2018-08-09T00:29:13.091Z,22.81
2018-08-09T00:30:40.325Z,22.83
2018-08-09T00:32:14.127Z,22.80
2018-08-09T00:33:35.690Z,22.78
2018-08-09T00:35:03.220Z,22.80
2018-08-09T00:36:30.650Z,22.81
2018-08-09T00:37:58.117Z,22.82
2018-08-09T00:39:26.775Z,22.86
2018-08-09T00:40:54.280Z,22.90
2018-08-09T00:42:20.680Z,22.94
2018-08-09T00:43:48.327Z,22.97
2018-08-09T00:45:14.963Z,22.99
2018-08-09T00:46:42.385Z,23.01
2018-08-09T00:48:09.916Z,23.01
2018-08-09T00:49:37.639Z,23.01
2018-08-09T00:51:05.247Z,23.00
2018-08-09T00:52:32.036Z,22.95
2018-08-09T00:54:00.606Z,22.81
2018-08-09T00:55:28.145Z,22.67
2018-08-09T00:56:54.794Z,22.66
2018-08-09T00:58:23.269Z,22.63
2018-08-09T00:59:50.070Z,22.59
2018-08-09T01:01:17.564Z,22.50
2018-08-09T01:02:44.164Z,22.44
2018-08-09T01:04:11.692Z,22.43
2018-08-09T01:05:39.211Z,22.38
2018-08-09T01:07:06.788Z,22.26
2018-08-09T01:08:35.576Z,22.14
2018-08-09T01:10:00.931Z,22.14
2018-08-09T01:11:28.517Z,22.20
2018-08-09T01:12:55.927Z,22.26
2018-08-09T01:14:23.361Z,22.31
2018-08-09T01:15:50.021Z,22.37
2018-08-09T01:17:18.680Z,22.41
2018-08-09T01:18:46.131Z,22.43
2018-08-09T01:20:11.593Z,22.43
2018-08-09T01:21:40.239Z,22.44
2018-08-09T01:23:06.691Z,22.44
2018-08-09T01:24:34.390Z,22.45
2018-08-09T01:26:01.743Z,22.46
2018-08-09T01:27:29.467Z,22.46
2018-08-09T01:28:56.160Z,22.47
2018-08-09T01:30:23.681Z,22.45
2018-08-09T01:33:17.846Z,22.39
2018-08-09T01:34:45.475Z,22.30
2018-08-09T01:36:14.116Z,22.21
2018-08-09T01:37:40.653Z,22.15
2018-08-09T01:39:08.259Z,22.03
2018-08-09T01:40:34.734Z,21.98
2018-08-09T01:42:02.238Z,21.96
2018-08-09T01:43:29.832Z,21.93
2018-08-09T01:44:57.366Z,21.93
2018-08-09T01:46:23.902Z,21.85
2018-08-09T01:47:52.325Z,21.73
2018-08-09T01:49:19.723Z,21.63
2018-08-09T01:50:47.251Z,21.60
2018-08-09T01:52:13.749Z,21.62
2018-08-09T01:53:41.187Z,21.67
2018-08-09T01:55:19.448Z,21.72
2018-08-09T01:56:46.788Z,21.76
2018-08-09T01:58:19.306Z,21.80
2018-08-09T01:59:40.654Z,21.84
2018-08-09T02:01:08.336Z,21.87
2018-08-09T02:02:37.038Z,21.86
2018-08-09T02:04:03.630Z,21.84
2018-08-09T02:05:31.080Z,21.85
2018-08-09T02:06:59.596Z,21.86
2018-08-09T02:08:26.329Z,21.86
2018-08-09T02:09:53.970Z,21.87
2018-08-09T02:11:21.528Z,21.89
2018-08-09T02:12:48.366Z,21.90
2018-08-09T02:14:14.671Z,21.88
2018-08-09T02:15:41.376Z,21.88
2018-08-09T02:17:09.112Z,21.88
2018-08-09T02:18:36.562Z,21.88
2018-08-09T02:20:05.240Z,21.87
2018-08-09T02:21:31.894Z,21.86
2018-08-09T02:23:00.312Z,21.84
2018-08-09T02:24:27.521Z,21.79
2018-08-09T02:25:54.113Z,21.78
2018-08-09T02:27:21.414Z,21.76
2018-08-09T02:28:48.542Z,21.76
2018-08-09T02:30:17.120Z,21.75
2018-08-09T02:31:43.662Z,21.74
2018-08-09T02:33:11.203Z,21.74
2018-08-09T02:34:38.853Z,21.73
2018-08-09T02:36:06.313Z,21.72
2018-08-09T02:37:33.831Z,21.71
2018-08-09T02:39:01.199Z,21.71
2018-08-09T02:40:28.796Z,21.71
2018-08-09T02:41:55.486Z,21.70
2018-08-09T02:43:24.142Z,21.68
2018-08-09T02:44:50.687Z,21.68
2018-08-09T02:46:17.211Z,21.66
2018-08-09T02:47:44.704Z,21.65
2018-08-09T02:49:10.951Z,21.64
2018-08-09T02:50:38.713Z,21.63
2018-08-09T02:52:06.079Z,21.61
2018-08-09T02:53:32.609Z,21.59
2018-08-09T02:54:59.012Z,21.58
2018-08-09T02:56:26.205Z,21.49
2018-08-09T02:57:52.074Z,21.41
2018-08-09T02:59:18.565Z,21.31
2018-08-09T03:00:45.119Z,21.24
2018-08-09T03:02:12.860Z,21.21
2018-08-09T03:03:40.410Z,21.22
2018-08-09T03:05:07.827Z,21.17
2018-08-09T03:06:33.459Z,21.17
2018-08-09T03:08:00.901Z,21.17
2018-08-09T03:09:29.670Z,21.15
2018-08-09T03:10:54.721Z,21.15
2018-08-09T03:12:22.431Z,21.11
2018-08-09T03:13:50.945Z,21.12
2018-08-09T03:15:16.811Z,21.13
2018-08-09T03:16:44.662Z,21.14
2018-08-09T03:18:13.270Z,21.14
2018-08-09T03:19:39.672Z,21.10
2018-08-09T03:21:07.192Z,21.05
2018-08-09T03:22:34.609Z,21.01
2018-08-09T03:24:02.065Z,20.94
2018-08-09T03:25:30.715Z,20.95
2018-08-09T03:26:57.124Z,20.96
2018-08-09T03:28:24.453Z,20.98
2018-08-09T03:29:53.048Z,21.00
2018-08-09T03:31:19.466Z,21.01
2018-08-09T03:32:48.123Z,21.01
2018-08-09T03:34:14.422Z,21.03
2018-08-09T03:35:42.028Z,21.04
2018-08-09T03:37:10.599Z,20.98
2018-08-09T03:38:38.138Z,20.85
2018-08-09T03:40:04.598Z,20.71
2018-08-09T03:41:32.161Z,20.60
2018-08-09T03:43:00.440Z,20.51
2018-08-09T03:44:27.700Z,20.47
2018-08-09T03:45:54.183Z,20.45
2018-08-09T03:47:20.595Z,20.47
2018-08-09T03:48:47.514Z,20.52
2018-08-09T03:50:14.132Z,20.55
2018-08-09T03:51:42.696Z,20.60
2018-08-09T03:53:09.055Z,20.63
2018-08-09T03:54:36.337Z,20.66
2018-08-09T03:56:03.975Z,20.71
2018-08-09T03:57:30.551Z,20.77
2018-08-09T03:58:58.066Z,20.80
2018-08-09T04:00:24.483Z,20.83
2018-08-09T04:01:51.875Z,20.85
2018-08-09T04:03:20.417Z,20.84
2018-08-09T04:04:47.949Z,20.83
2018-08-09T04:06:14.373Z,20.81
2018-08-09T04:07:41.702Z,20.79
2018-08-09T04:09:09.354Z,20.71
2018-08-09T04:10:37.848Z,20.71
2018-08-09T04:12:05.508Z,20.67
2018-08-09T04:13:30.519Z,20.61
2018-08-09T04:14:57.952Z,20.62
2018-08-09T04:16:26.572Z,20.60
2018-08-09T04:17:52.283Z,20.63
2018-08-09T04:19:19.799Z,20.66
2018-08-09T04:20:47.354Z,20.70
2018-08-09T04:22:14.746Z,20.77
2018-08-09T04:23:42.332Z,20.82
2018-08-09T04:25:08.630Z,20.86
2018-08-09T04:26:36.288Z,20.88
2018-08-09T04:28:02.496Z,20.81
2018-08-09T04:29:29.126Z,20.73
2018-08-09T04:30:55.421Z,20.64
2018-08-09T04:32:23.896Z,20.63
2018-08-09T04:33:50.310Z,20.61
2018-08-09T04:35:16.384Z,20.56
2018-08-09T04:36:43.755Z,20.52
2018-08-09T04:38:11.311Z,20.51
2018-08-09T04:39:36.960Z,20.49
2018-08-09T04:41:04.421Z,20.45
2018-08-09T04:42:31.756Z,20.39
2018-08-09T04:43:57.863Z,20.41
2018-08-09T04:45:25.345Z,20.45
2018-08-09T04:46:53.985Z,20.49
2018-08-09T04:48:20.516Z,20.57
2018-08-09T04:49:47.814Z,20.64
2018-08-09T04:51:15.298Z,20.71
2018-08-09T04:52:41.634Z,20.79
2018-08-09T04:54:10.288Z,20.84
2018-08-09T04:55:37.789Z,20.89
2018-08-09T04:57:03.049Z,20.93
2018-08-09T04:58:31.697Z,20.95
2018-08-09T04:59:56.887Z,20.97
2018-08-09T05:01:24.186Z,21.03
2018-08-09T05:02:51.590Z,21.10
2018-08-09T05:04:17.660Z,21.17
2018-08-09T05:05:45.158Z,21.22
2018-08-09T05:07:12.703Z,21.29
2018-08-09T05:08:40.248Z,21.36
2018-08-09T05:10:08.695Z,21.44
2018-08-09T05:11:35.343Z,21.51
2018-08-09T05:13:02.858Z,21.52
2018-08-09T05:14:30.252Z,21.57
2018-08-09T05:15:57.071Z,21.62
2018-08-09T05:17:24.544Z,21.68
2018-08-09T05:18:51.946Z,21.71
2018-08-09T05:20:20.475Z,21.74
2018-08-09T05:21:46.890Z,21.79
2018-08-09T05:23:13.435Z,21.87
2018-08-09T05:24:39.745Z,21.96
2018-08-09T05:26:07.223Z,21.99
2018-08-09T05:27:34.696Z,22.03
2018-08-09T05:29:01.083Z,22.12
2018-08-09T05:30:28.628Z,22.20
2018-08-09T05:31:55.989Z,22.28
2018-08-09T05:33:22.784Z,22.36
2018-08-09T05:34:49.384Z,22.44
2018-08-09T05:36:17.697Z,22.46
2018-08-09T05:37:44.331Z,22.53
2018-08-09T05:39:11.606Z,22.57
2018-08-09T05:40:38.160Z,22.60
2018-08-09T05:42:03.637Z,22.68
2018-08-09T05:43:32.283Z,22.78
2018-08-09T05:44:59.951Z,22.82
2018-08-09T05:46:26.418Z,22.87
2018-08-09T05:47:52.962Z,22.93
2018-08-09T05:49:20.502Z,22.91
2018-08-09T05:50:47.942Z,22.98
2018-08-09T05:52:15.228Z,23.21
2018-08-09T05:53:41.729Z,23.53
2018-08-09T05:55:08.231Z,23.85
2018-08-09T05:56:35.221Z,24.13
2018-08-09T05:58:03.675Z,24.08
2018-08-09T05:59:30.281Z,23.90
2018-08-09T06:00:57.720Z,23.93
2018-08-09T06:02:23.155Z,24.17
2018-08-09T06:03:51.820Z,24.47
2018-08-09T06:05:18.486Z,24.58
2018-08-09T06:06:44.526Z,24.55
2018-08-09T06:08:12.140Z,24.54
2018-08-09T06:09:39.677Z,24.47
2018-08-09T06:11:07.393Z,24.52
2018-08-09T06:12:35.908Z,24.78
2018-08-09T06:14:01.517Z,24.87
2018-08-09T06:15:29.216Z,24.76
2018-08-09T06:16:56.805Z,24.66
2018-08-09T06:18:23.221Z,24.60
2018-08-09T06:19:51.480Z,24.61
2018-08-09T06:21:18.019Z,24.52
2018-08-09T06:22:45.341Z,24.45
2018-08-09T06:24:14.028Z,24.42
2018-08-09T06:25:41.632Z,24.44
2018-08-09T06:27:09.227Z,24.40
2018-08-09T06:28:35.828Z,24.40
2018-08-09T06:30:02.391Z,24.48
2018-08-09T06:31:29.956Z,24.62
2018-08-09T06:32:56.449Z,24.71
2018-08-09T06:34:23.972Z,24.76
2018-08-09T06:35:51.602Z,24.92
2018-08-09T06:38:46.870Z,24.77
2018-08-09T06:40:13.363Z,24.61
2018-08-09T06:41:42.031Z,24.53
2018-08-09T06:43:07.561Z,24.31
2018-08-09T06:44:36.053Z,24.25
2018-08-09T06:46:02.754Z,24.29
2018-08-09T06:47:30.389Z,24.25
2018-08-09T06:48:57.861Z,24.22
2018-08-09T06:50:24.316Z,24.18
2018-08-09T06:51:50.837Z,24.18
2018-08-09T06:53:18.524Z,24.22
2018-08-09T06:54:46.006Z,24.23
2018-08-09T06:56:14.629Z,24.25
2018-08-09T06:57:42.194Z,24.30
2018-08-09T06:59:08.302Z,24.36
2018-08-09T07:00:36.941Z,24.49
2018-08-09T07:02:03.539Z,24.63
2018-08-09T07:03:32.178Z,24.63
2018-08-09T07:04:59.632Z,24.66
2018-08-09T07:06:27.234Z,24.71
2018-08-09T07:07:53.731Z,24.74
2018-08-09T07:09:22.149Z,24.77
2018-08-09T07:10:49.691Z,24.89
2018-08-09T07:12:16.258Z,24.94
2018-08-09T07:13:43.554Z,25.01
2018-08-09T07:15:12.114Z,24.98
2018-08-09T07:16:38.645Z,24.94
2018-08-09T07:18:05.141Z,24.93
2018-08-09T07:19:33.940Z,25.02
2018-08-09T07:21:00.320Z,25.14
2018-08-09T07:22:27.900Z,25.28
2018-08-09T07:23:54.619Z,25.40
2018-08-09T07:25:22.063Z,25.43
2018-08-09T07:26:50.855Z,25.55
2018-08-09T07:28:17.178Z,25.65
2018-08-09T07:29:45.740Z,25.77
2018-08-09T07:31:11.108Z,25.87
2018-08-09T07:32:37.908Z,26.00
2018-08-09T07:34:04.220Z,26.09
2018-08-09T07:35:32.854Z,25.99
2018-08-09T07:37:00.463Z,26.03
2018-08-09T07:38:28.111Z,26.05
2018-08-09T07:39:54.706Z,26.13
2018-08-09T07:41:21.773Z,26.10
2018-08-09T07:42:48.801Z,26.15
2018-08-09T07:44:17.423Z,26.18
2018-08-09T07:45:45.213Z,26.34
2018-08-09T07:47:11.956Z,26.54
2018-08-09T07:48:39.421Z,26.69
2018-08-09T07:50:07.201Z,26.62
2018-08-09T07:51:35.877Z,26.63
2018-08-09T07:53:03.406Z,26.68
2018-08-09T07:54:30.273Z,26.62
2018-08-09T07:55:58.878Z,26.64
2018-08-09T07:57:26.526Z,26.84
2018-08-09T07:58:53.139Z,27.00
2018-08-09T08:00:20.365Z,27.00
2018-08-09T08:01:48.438Z,27.02
2018-08-09T08:03:14.869Z,26.96
2018-08-09T08:04:42.519Z,27.02
2018-08-09T08:06:10.296Z,26.98
2018-08-09T08:07:38.837Z,26.92
2018-08-09T08:09:05.393Z,26.75
2018-08-09T08:10:32.080Z,26.61
2018-08-09T08:12:00.694Z,26.50
2018-08-09T08:13:27.200Z,26.49
2018-08-09T08:14:55.792Z,26.55
2018-08-09T08:16:23.514Z,26.60
2018-08-09T08:17:49.910Z,26.65
2018-08-09T08:19:17.491Z,26.52
2018-08-09T08:20:46.040Z,26.44
2018-08-09T08:22:12.505Z,26.40
2018-08-09T08:23:40.099Z,26.24
2018-08-09T08:25:07.846Z,26.30
2018-08-09T08:26:34.873Z,26.43
2018-08-09T08:28:03.588Z,26.55
2018-08-09T08:29:30.240Z,26.54
2018-08-09T08:30:57.725Z,26.58
2018-08-09T08:32:25.408Z,26.52
2018-08-09T08:33:53.072Z,26.54
2018-08-09T08:35:21.193Z,26.56
2018-08-09T08:36:47.911Z,26.70
2018-08-09T08:38:14.898Z,26.86
2018-08-09T08:39:42.501Z,26.89
2018-08-09T08:41:10.085Z,26.93
2018-08-09T08:42:37.792Z,26.75
2018-08-09T08:44:06.366Z,26.71
2018-08-09T08:45:32.608Z,26.66
2018-08-09T08:47:00.258Z,26.73
2018-08-09T08:48:27.991Z,26.76
2018-08-09T08:49:56.597Z,26.80
2018-08-09T08:51:24.292Z,26.88
2018-08-09T08:52:51.952Z,26.79
2018-08-09T08:54:18.498Z,26.82
2018-08-09T08:55:46.811Z,26.77
2018-08-09T08:57:13.604Z,26.83
2018-08-09T08:58:41.203Z,26.92
2018-08-09T09:00:09.294Z,27.02
2018-08-09T09:01:35.919Z,27.08
2018-08-09T09:03:04.651Z,27.12
2018-08-09T09:04:31.305Z,27.11
2018-08-09T09:05:59.174Z,27.18
2018-08-09T09:07:25.746Z,27.13
2018-08-09T09:08:51.484Z,27.14
2018-08-09T09:10:19.969Z,27.10
2018-08-09T09:11:46.652Z,27.21
2018-08-09T09:13:14.207Z,27.22
2018-08-09T09:14:41.864Z,27.14
2018-08-09T09:16:09.417Z,27.14
2018-08-09T09:17:37.090Z,27.28
2018-08-09T09:19:04.812Z,27.41
2018-08-09T09:20:32.898Z,27.45
2018-08-09T09:21:59.581Z,27.51
2018-08-09T09:23:28.173Z,27.49
2018-08-09T09:24:54.679Z,27.34
2018-08-09T09:26:21.630Z,27.32
2018-08-09T09:27:50.023Z,27.40
2018-08-09T09:29:16.682Z,27.30
2018-08-09T09:30:45.291Z,27.29
2018-08-09T09:32:11.967Z,27.36
2018-08-09T09:33:39.771Z,27.47
2018-08-09T09:35:07.391Z,27.55
2018-08-09T09:36:34.003Z,27.61
2018-08-09T09:38:01.738Z,27.68
2018-08-09T09:39:30.329Z,27.81
2018-08-09T09:40:56.565Z,27.87
2018-08-09T09:42:25.223Z,27.99
2018-08-09T09:43:51.861Z,27.96
2018-08-09T09:45:19.487Z,27.92
2018-08-09T09:46:46.844Z,27.82
2018-08-09T09:48:15.499Z,27.81
2018-08-09T09:49:43.182Z,27.96
2018-08-09T09:51:09.780Z,28.08
2018-08-09T09:52:37.448Z,27.93
2018-08-09T09:54:05.095Z,28.00
2018-08-09T09:55:32.736Z,28.06
2018-08-09T09:57:00.463Z,28.20
2018-08-09T09:58:27.344Z,28.38
2018-08-09T09:59:56.163Z,28.44
2018-08-09T10:01:22.799Z,28.40
2018-08-09T10:02:50.333Z,28.49
2018-08-09T10:04:17.771Z,28.54
2018-08-09T10:05:45.638Z,28.63
2018-08-09T10:07:11.827Z,28.66
2018-08-09T10:08:39.288Z,28.63
2018-08-09T10:10:07.062Z,28.54
2018-08-09T10:11:34.857Z,28.34
2018-08-09T10:13:02.429Z,28.32
2018-08-09T10:14:30.132Z,28.35
2018-08-09T10:15:57.415Z,28.27
2018-08-09T10:17:24.729Z,28.38
2018-08-09T10:18:52.408Z,28.33
2018-08-09T10:20:20.152Z,28.34
2018-08-09T10:21:48.856Z,28.47
2018-08-09T10:23:14.824Z,28.57
2018-08-09T10:24:43.176Z,28.65
2018-08-09T10:26:10.890Z,28.79
2018-08-09T10:27:38.037Z,28.74
2018-08-09T10:29:04.298Z,28.85
2018-08-09T10:30:31.937Z,28.92
2018-08-09T10:32:00.054Z,28.87
2018-08-09T10:33:26.721Z,29.02
2018-08-09T10:34:54.393Z,29.07
2018-08-09T10:36:23.140Z,29.08
2018-08-09T10:37:49.774Z,29.19
2018-08-09T10:39:17.256Z,29.14
2018-08-09T10:40:45.916Z,29.24
2018-08-09T10:42:12.223Z,29.35
2018-08-09T10:43:39.461Z,29.43
2018-08-09T10:45:06.714Z,29.28
2018-08-09T10:46:33.749Z,29.32
2018-08-09T10:48:02.489Z,29.34
2018-08-09T10:49:29.107Z,29.38
2018-08-09T10:50:56.351Z,29.27
2018-08-09T10:52:25.071Z,29.44
2018-08-09T10:53:51.848Z,29.65
2018-08-09T10:55:19.938Z,29.68
2018-08-09T10:56:46.385Z,29.59
2018-08-09T10:58:14.219Z,29.66
2018-08-09T10:59:42.817Z,29.77
2018-08-09T11:01:09.291Z,29.81
2018-08-09T11:02:34.689Z,29.72
2018-08-09T11:04:02.358Z,29.51
2018-08-09T11:05:30.017Z,29.44
2018-08-09T11:06:56.978Z,29.34
2018-08-09T11:08:24.521Z,29.29
2018-08-09T11:09:53.111Z,29.35
2018-08-09T11:11:22.087Z,29.25
2018-08-09T11:12:47.341Z,29.19
2018-08-09T11:14:14.000Z,29.24
2018-08-09T11:15:42.699Z,29.26
2018-08-09T11:17:09.432Z,29.35
2018-08-09T11:18:38.250Z,29.48
2018-08-09T11:20:04.677Z,29.54
2018-08-09T11:21:32.344Z,29.48
2018-08-09T11:22:58.966Z,29.47
2018-08-09T11:24:27.534Z,29.65
2018-08-09T11:25:54.164Z,29.87
2018-08-09T11:27:21.709Z,30.02
2018-08-09T11:28:49.480Z,30.12
2018-08-09T11:30:17.033Z,29.98
2018-08-09T11:31:44.209Z,29.94
2018-08-09T11:33:11.875Z,30.01
2018-08-09T11:34:39.420Z,30.20
2018-08-09T11:36:06.908Z,30.36
2018-08-09T11:37:34.303Z,30.47
2018-08-09T11:39:01.631Z,30.47
2018-08-09T11:40:29.307Z,30.55
2018-08-09T11:41:56.961Z,30.67
2018-08-09T11:43:24.476Z,30.58
2018-08-09T11:44:52.251Z,30.64
2018-08-09T11:46:19.762Z,30.40
2018-08-09T11:47:48.039Z,30.25
2018-08-09T11:49:15.709Z,30.25
2018-08-09T11:50:42.318Z,30.08
2018-08-09T11:52:10.126Z,29.87
2018-08-09T11:53:37.321Z,29.90
2018-08-09T11:55:04.939Z,30.00
2018-08-09T11:56:32.782Z,30.09
2018-08-09T11:57:59.473Z,30.21
2018-08-09T11:59:27.089Z,30.24
2018-08-09T12:00:54.126Z,30.19
2018-08-09T12:02:21.665Z,30.30
2018-08-09T12:03:50.407Z,30.59
2018-08-09T12:05:16.753Z,30.92
2018-08-09T12:06:45.339Z,30.87
2018-08-09T12:08:11.972Z,30.87
2018-08-09T12:09:39.359Z,30.85
2018-08-09T12:11:07.043Z,30.92
2018-08-09T12:12:34.782Z,31.02
2018-08-09T12:14:03.496Z,31.22
2018-08-09T12:15:30.179Z,31.12
2018-08-09T12:16:57.832Z,31.31
2018-08-09T12:18:26.505Z,31.38
2018-08-09T12:19:53.137Z,31.33
2018-08-09T12:21:20.730Z,31.37
2018-08-09T12:22:49.126Z,31.22
2018-08-09T12:24:15.240Z,30.85
2018-08-09T12:25:43.324Z,30.60
2018-08-09T12:27:09.989Z,30.36
2018-08-09T12:28:37.690Z,30.32
2018-08-09T12:30:05.752Z,30.24
2018-08-09T12:31:32.539Z,30.24
2018-08-09T12:33:00.343Z,30.21
2018-08-09T12:34:27.952Z,30.16
2018-08-09T12:35:55.594Z,30.17
2018-08-09T12:37:24.202Z,30.32
2018-08-09T12:38:50.773Z,30.40
2018-08-09T12:40:19.334Z,30.51
2018-08-09T12:41:46.936Z,30.57
2018-08-09T12:43:14.690Z,30.79
2018-08-09T12:44:42.240Z,31.07
2018-08-09T12:46:08.644Z,31.20
2018-08-09T12:47:36.203Z,31.40
2018-08-09T12:49:05.038Z,31.35
2018-08-09T12:50:31.541Z,31.24
2018-08-09T12:51:58.997Z,30.89
2018-08-09T12:53:26.320Z,30.82
2018-08-09T12:54:53.987Z,30.88
2018-08-09T12:56:21.036Z,30.96
2018-08-09T12:57:48.865Z,31.01
2018-08-09T12:59:17.254Z,31.06
2018-08-09T13:00:44.841Z,31.17
2018-08-09T13:02:12.644Z,31.20
2018-08-09T13:03:39.373Z,31.21
2018-08-09T13:05:06.936Z,31.03
2018-08-09T13:06:34.767Z,30.97
2018-08-09T13:08:02.422Z,30.78
2018-08-09T13:09:31.064Z,30.68
2018-08-09T13:10:57.093Z,30.62
2018-08-09T13:12:24.739Z,30.56
2018-08-09T13:13:52.405Z,30.63
2018-08-09T13:15:19.954Z,30.73
2018-08-09T13:16:47.635Z,30.77
2018-08-09T13:18:15.286Z,30.80
2018-08-09T13:19:43.110Z,30.82
2018-08-09T13:21:10.891Z,30.82
2018-08-09T13:22:38.513Z,30.53
2018-08-09T13:24:06.295Z,30.31
2018-08-09T13:25:33.861Z,30.24
2018-08-09T13:27:01.501Z,30.28
2018-08-09T13:28:29.171Z,30.37
2018-08-09T13:29:56.890Z,30.55
2018-08-09T13:31:24.554Z,30.76
2018-08-09T13:32:52.256Z,30.92
2018-08-09T13:34:19.744Z,30.86
2018-08-09T13:35:47.246Z,30.86
2018-08-09T13:37:14.758Z,30.93
2018-08-09T13:38:43.445Z,30.99
2018-08-09T13:40:11.107Z,30.99
2018-08-09T13:41:37.879Z,30.98
2018-08-09T13:43:05.570Z,31.03
2018-08-09T13:44:33.221Z,30.97
2018-08-09T13:46:00.917Z,30.98
2018-08-09T13:47:28.410Z,30.93
2018-08-09T13:48:56.088Z,30.90
2018-08-09T13:50:23.676Z,30.89
2018-08-09T13:51:51.351Z,30.92
2018-08-09T13:53:18.603Z,30.94
2018-08-09T13:54:46.996Z,30.96
2018-08-09T13:56:13.665Z,31.04
2018-08-09T13:57:41.370Z,31.06
2018-08-09T13:59:09.101Z,31.07
2018-08-09T14:00:37.381Z,30.99
2018-08-09T14:02:04.968Z,31.01
2018-08-09T14:03:31.677Z,31.05
2018-08-09T14:04:59.507Z,31.05
2018-08-09T14:06:26.571Z,31.06
2018-08-09T14:07:54.251Z,31.11
2018-08-09T14:09:22.862Z,31.07
2018-08-09T14:10:49.429Z,31.05
2018-08-09T14:12:16.980Z,31.02
2018-08-09T14:13:45.744Z,31.02
2018-08-09T14:15:12.526Z,30.98
2018-08-09T14:16:41.190Z,30.98
2018-08-09T14:18:08.935Z,31.04
2018-08-09T14:19:35.699Z,31.09
2018-08-09T14:21:03.459Z,31.06
2018-08-09T14:22:31.166Z,31.10
2018-08-09T14:23:59.519Z,31.14
2018-08-09T14:25:25.972Z,31.18
2018-08-09T14:26:53.700Z,31.21
2018-08-09T14:28:21.459Z,31.15
2018-08-09T14:29:50.003Z,31.10
2018-08-09T14:31:16.676Z,31.10
2018-08-09T14:32:44.450Z,31.12
2018-08-09T14:34:13.227Z,31.09
2018-08-09T14:35:39.967Z,31.11
2018-08-09T14:37:07.219Z,31.16
2018-08-09T14:38:34.986Z,31.19
2018-08-09T14:40:02.600Z,31.22
2018-08-09T14:41:30.338Z,31.23
2018-08-09T14:42:57.512Z,31.24
2018-08-09T14:44:25.211Z,31.30
2018-08-09T14:45:53.560Z,31.34
2018-08-09T14:47:20.873Z,31.27
2018-08-09T14:48:47.060Z,31.18
2018-08-09T14:50:16.002Z,31.11
2018-08-09T14:51:42.041Z,31.07
2018-08-09T14:53:09.662Z,31.06
2018-08-09T14:54:36.944Z,31.11
2018-08-09T14:56:04.583Z,31.17
2018-08-09T14:57:33.294Z,31.22
2018-08-09T14:58:59.958Z,31.27
2018-08-09T15:00:27.672Z,31.30
2018-08-09T15:01:55.785Z,31.32
2018-08-09T15:03:22.536Z,31.37
2018-08-09T15:04:49.965Z,31.36
2018-08-09T15:06:17.482Z,31.28
2018-08-09T15:07:46.215Z,31.25
2018-08-09T15:09:12.956Z,31.22
2018-08-09T15:10:40.388Z,31.18
2018-08-09T15:12:07.423Z,31.11
2018-08-09T15:13:35.879Z,31.10
2018-08-09T15:15:02.381Z,31.07
2018-08-09T15:16:30.158Z,31.00
2018-08-09T15:17:58.007Z,31.00
2018-08-09T15:19:25.558Z,31.01
2018-08-09T15:20:53.064Z,31.02
2018-08-09T15:22:20.633Z,31.01
2018-08-09T15:23:48.241Z,30.99
2018-08-09T15:25:14.932Z,31.01
2018-08-09T15:26:43.734Z,31.03
2018-08-09T15:28:11.528Z,31.04
2018-08-09T15:29:38.109Z,30.97
2018-08-09T15:31:06.294Z,30.91
2018-08-09T15:32:32.899Z,30.81
2018-08-09T15:34:00.649Z,30.79
2018-08-09T15:35:27.320Z,30.81
2018-08-09T15:36:56.059Z,30.81
2018-08-09T15:38:22.165Z,30.80
2018-08-09T15:39:50.190Z,30.77
2018-08-09T15:41:16.432Z,30.74
2018-08-09T15:42:44.199Z,30.67
2018-08-09T15:44:11.980Z,30.62
2018-08-09T15:45:40.722Z,30.63
2018-08-09T15:47:08.534Z,30.65
2018-08-09T15:48:35.246Z,30.65
2018-08-09T15:50:02.849Z,30.65
2018-08-09T15:51:30.590Z,30.62
2018-08-09T15:52:58.282Z,30.50
2018-08-09T15:54:26.060Z,30.48
2018-08-09T15:55:54.761Z,30.48
2018-08-09T15:57:21.048Z,30.48
2018-08-09T15:58:48.585Z,30.44
2018-08-09T16:00:17.166Z,30.44
2018-08-09T16:01:43.908Z,30.42
2018-08-09T16:03:12.650Z,30.45
2018-08-09T16:04:40.262Z,30.40
2018-08-09T16:06:07.000Z,30.37
2018-08-09T16:07:34.754Z,30.40
2018-08-09T16:09:01.594Z,30.34
2018-08-09T16:10:30.190Z,30.29
2018-08-09T16:11:57.892Z,30.21
2018-08-09T16:13:24.452Z,30.20
2018-08-09T16:14:52.117Z,30.18
2018-08-09T16:16:20.876Z,30.19
2018-08-09T16:17:47.745Z,30.16
2018-08-09T16:19:14.372Z,30.15
2018-08-09T16:20:42.895Z,30.15
2018-08-09T16:22:08.649Z,30.13
2018-08-09T16:23:36.288Z,30.13
2018-08-09T16:25:04.915Z,30.12
2018-08-09T16:26:31.647Z,30.15
2018-08-09T16:27:59.373Z,30.15
2018-08-09T16:29:27.060Z,30.13
2018-08-09T16:30:55.746Z,30.07
2018-08-09T16:32:22.381Z,30.02
2018-08-09T16:33:51.044Z,30.01
2018-08-09T16:35:17.692Z,29.99
2018-08-09T16:36:45.288Z,29.99
2018-08-09T16:38:13.991Z,30.00
2018-08-09T16:39:40.697Z,29.98
2018-08-09T16:41:08.419Z,29.94
2018-08-09T16:42:36.359Z,29.86
2018-08-09T16:44:03.180Z,29.76
2018-08-09T16:45:30.860Z,29.70
2018-08-09T16:46:58.901Z,29.61
2018-08-09T16:48:25.179Z,29.55
2018-08-09T16:49:52.864Z,29.54
2018-08-09T16:51:20.559Z,29.49
2018-08-09T16:52:47.902Z,29.50
2018-08-09T16:54:15.440Z,29.46
2018-08-09T16:55:43.284Z,29.41
2018-08-09T16:57:11.000Z,29.36
2018-08-09T16:58:38.548Z,29.35
2018-08-09T17:00:06.218Z,29.30
2018-08-09T17:01:34.938Z,29.25
2018-08-09T17:03:01.073Z,29.24
2018-08-09T17:04:28.649Z,29.16
2018-08-09T17:05:57.405Z,29.08
2018-08-09T17:07:25.100Z,29.07
2018-08-09T17:08:51.702Z,29.03
2018-08-09T17:10:19.317Z,28.95
2018-08-09T17:11:46.986Z,28.91
2018-08-09T17:13:14.022Z,28.85
2018-08-09T17:14:41.702Z,28.85
2018-08-09T17:16:09.295Z,28.86
2018-08-09T17:17:36.816Z,28.89
2018-08-09T17:19:03.695Z,28.86
2018-08-09T17:20:30.731Z,28.79
2018-08-09T17:21:58.367Z,28.80
2018-08-09T17:23:25.998Z,28.75
2018-08-09T17:24:54.512Z,28.74
2018-08-09T17:26:21.069Z,28.69
2018-08-09T17:27:48.959Z,28.68
2018-08-09T17:29:15.423Z,28.64
2018-08-09T17:30:42.722Z,28.61
2018-08-09T17:32:10.424Z,28.60
2018-08-09T17:33:38.476Z,28.58
2018-08-09T17:35:06.054Z,28.55
2018-08-09T17:36:32.244Z,28.50
2018-08-09T17:38:00.947Z,28.45
2018-08-09T17:39:27.666Z,28.43
2018-08-09T17:40:55.388Z,28.42
2018-08-09T17:42:22.997Z,28.39
2018-08-09T17:43:50.647Z,28.30
2018-08-09T17:45:19.384Z,28.27
2018-08-09T17:46:46.016Z,28.26
2018-08-09T17:48:13.396Z,28.20
2018-08-09T17:49:40.419Z,28.16
2018-08-09T17:51:09.109Z,28.11
2018-08-09T17:52:35.278Z,28.05
2018-08-09T17:54:03.054Z,28.07
2018-08-09T17:55:30.736Z,28.08
2018-08-09T17:56:58.501Z,28.06
2018-08-09T17:58:27.147Z,28.05
2018-08-09T17:59:54.787Z,28.06
2018-08-09T18:01:22.202Z,27.99
2018-08-09T18:02:48.954Z,27.96
2018-08-09T18:04:16.115Z,27.97
2018-08-09T18:05:43.721Z,27.97
2018-08-09T18:07:11.402Z,27.94
2018-08-09T18:08:39.852Z,27.92
2018-08-09T18:10:07.299Z,27.85
2018-08-09T18:11:33.236Z,27.76
2018-08-09T18:13:00.967Z,27.71
2018-08-09T18:14:28.516Z,27.64
2018-08-09T18:15:56.179Z,27.57
2018-08-09T18:17:24.395Z,27.50
2018-08-09T18:18:51.045Z,27.46
2018-08-09T18:20:17.777Z,27.47
2018-08-09T18:21:45.370Z,27.41
2018-08-09T18:23:13.093Z,27.36
2018-08-09T18:24:39.919Z,27.34
2018-08-09T18:26:07.465Z,27.32
2018-08-09T18:27:35.161Z,27.25
2018-08-09T18:29:02.882Z,27.24
2018-08-09T18:30:29.757Z,27.20
2018-08-09T18:31:57.308Z,27.15
2018-08-09T18:33:24.028Z,27.13
2018-08-09T18:34:51.628Z,27.10
2018-08-09T18:36:20.249Z,27.03
2018-08-09T18:37:46.407Z,27.01
2018-08-09T18:39:13.399Z,27.03
2018-08-09T18:40:42.004Z,27.01
2018-08-09T18:42:08.567Z,27.03
2018-08-09T18:43:36.194Z,26.96
2018-08-09T18:45:03.877Z,26.96
2018-08-09T18:46:31.361Z,26.90
2018-08-09T18:47:59.926Z,26.86